sensor_id;sensor_type;location;lat;lon;timestamp;pressure;altitude;pressure_sealevel;temperature;humidity
44385;BME280;30101;32.778;34.994;2022-08-19T00:01:13;96749.84;;;24.18;66.84
44385;BME280;30101;32.778;34.994;2022-08-19T00:06:33;96748.41;;;24.20;66.64
44385;BME280;30101;32.778;34.994;2022-08-19T00:11:37;96757.84;;;24.23;66.74
44385;BME280;30101;32.778;34.994;2022-08-19T00:16:42;96759.47;;;24.24;66.80
44385;BME280;30101;32.778;34.994;2022-08-19T00:21:46;96756.72;;;24.24;66.55
44385;BME280;30101;32.778;34.994;2022-08-19T00:26:51;96755.13;;;24.23;66.79
44385;BME280;30101;32.778;34.994;2022-08-19T00:31:54;96758.50;;;24.20;66.74
44385;BME280;30101;32.778;34.994;2022-08-19T00:36:58;96758.34;;;24.16;66.55
44385;BME280;30101;32.778;34.994;2022-08-19T00:42:01;96762.53;;;24.14;66.96
44385;BME280;30101;32.778;34.994;2022-08-19T00:47:05;96761.56;;;24.10;66.54
44385;BME280;30101;32.778;34.994;2022-08-19T00:52:38;96759.63;;;24.10;66.46
44385;BME280;30101;32.778;34.994;2022-08-19T00:57:48;96759.16;;;24.17;66.69
44385;BME280;30101;32.778;34.994;2022-08-19T01:02:53;96761.72;;;24.22;66.27
44385;BME280;30101;32.778;34.994;2022-08-19T01:07:59;96760.25;;;24.25;66.61
44385;BME280;30101;32.778;34.994;2022-08-19T01:13:04;96761.25;;;24.20;66.73
44385;BME280;30101;32.778;34.994;2022-08-19T01:18:12;96763.34;;;24.14;66.97
44385;BME280;30101;32.778;34.994;2022-08-19T01:23:17;96763.63;;;24.13;66.85
44385;BME280;30101;32.778;34.994;2022-08-19T01:28:26;96760.09;;;24.12;67.05
44385;BME280;30101;32.778;34.994;2022-08-19T01:33:36;96765.56;;;24.04;67.18
44385;BME280;30101;32.778;34.994;2022-08-19T01:38:42;96762.19;;;23.98;67.57
44385;BME280;30101;32.778;34.994;2022-08-19T01:43:46;96759.63;;;23.93;67.51
44385;BME280;30101;32.778;34.994;2022-08-19T01:49:10;96750.19;;;23.90;67.22
44385;BME280;30101;32.778;34.994;2022-08-19T01:54:14;96748.25;;;23.91;67.59
44385;BME280;30101;32.778;34.994;2022-08-19T01:59:30;96748.56;;;23.89;67.96
44385;BME280;30101;32.778;34.994;2022-08-19T02:04:36;96744.22;;;23.88;68.00
44385;BME280;30101;32.778;34.994;2022-08-19T02:09:39;96753.84;;;23.86;67.74
44385;BME280;30101;32.778;34.994;2022-08-19T02:14:43;96747.94;;;23.84;68.26
44385;BME280;30101;32.778;34.994;2022-08-19T02:19:47;96755.94;;;23.80;68.07
44385;BME280;30101;32.778;34.994;2022-08-19T02:24:52;96755.47;;;23.78;67.88
44385;BME280;30101;32.778;34.994;2022-08-19T02:29:56;96754.47;;;23.74;68.06
44385;BME280;30101;32.778;34.994;2022-08-19T02:34:59;96754.63;;;23.69;68.33
44385;BME280;30101;32.778;34.994;2022-08-19T02:40:05;96755.91;;;23.63;68.66
44385;BME280;30101;32.778;34.994;2022-08-19T02:45:14;96754.44;;;23.57;68.73
44385;BME280;30101;32.778;34.994;2022-08-19T02:50:18;96761.31;;;23.54;68.58
44385;BME280;30101;32.778;34.994;2022-08-19T02:55:22;96768.53;;;23.50;68.93
44385;BME280;30101;32.778;34.994;2022-08-19T03:00:26;96757.94;;;23.49;69.00
44385;BME280;30101;32.778;34.994;2022-08-19T03:05:30;96766.13;;;23.49;68.94
44385;BME280;30101;32.778;34.994;2022-08-19T03:10:54;96768.84;;;23.49;68.94
44385;BME280;30101;32.778;34.994;2022-08-19T03:15:57;96782.47;;;23.49;69.05
44385;BME280;30101;32.778;34.994;2022-08-19T03:21:02;96784.56;;;23.52;69.16
44385;BME280;30101;32.778;34.994;2022-08-19T03:26:06;96778.16;;;23.56;68.86
44385;BME280;30101;32.778;34.994;2022-08-19T03:31:21;96784.09;;;23.58;69.04
44385;BME280;30101;32.778;34.994;2022-08-19T03:36:45;96778.34;;;23.60;68.96
44385;BME280;30101;32.778;34.994;2022-08-19T03:41:52;96787.53;;;23.64;69.27
44385;BME280;30101;32.778;34.994;2022-08-19T03:47:16;96794.56;;;23.65;68.99
44385;BME280;30101;32.778;34.994;2022-08-19T03:52:20;96799.50;;;23.63;69.43
44385;BME280;30101;32.778;34.994;2022-08-19T03:57:23;96802.56;;;23.61;69.14
44385;BME280;30101;32.778;34.994;2022-08-19T04:02:34;96805.28;;;23.61;69.39
44385;BME280;30101;32.778;34.994;2022-08-19T04:07:37;96801.28;;;23.67;69.39
44385;BME280;30101;32.778;34.994;2022-08-19T04:12:41;96796.50;;;23.82;69.16
44385;BME280;30101;32.778;34.994;2022-08-19T04:17:44;96810.63;;;23.92;69.20
44385;BME280;30101;32.778;34.994;2022-08-19T04:22:47;96806.31;;;24.00;69.14
44385;BME280;30101;32.778;34.994;2022-08-19T04:27:51;96805.81;;;24.07;69.14
44385;BME280;30101;32.778;34.994;2022-08-19T04:32:55;96806.31;;;24.17;69.18
44385;BME280;30101;32.778;34.994;2022-08-19T04:37:58;96811.28;;;24.24;69.22
44385;BME280;30101;32.778;34.994;2022-08-19T04:43:02;96814.81;;;24.33;69.32
44385;BME280;30101;32.778;34.994;2022-08-19T04:48:06;96817.09;;;24.48;68.79
44385;BME280;30101;32.778;34.994;2022-08-19T04:53:31;96825.38;;;24.78;68.54
44385;BME280;30101;32.778;34.994;2022-08-19T04:58:42;96821.00;;;25.03;68.28
44385;BME280;30101;32.778;34.994;2022-08-19T05:03:46;96831.56;;;25.22;67.87
44385;BME280;30101;32.778;34.994;2022-08-19T05:08:50;96835.22;;;25.26;67.94
44385;BME280;30101;32.778;34.994;2022-08-19T05:13:54;96841.47;;;25.26;67.99
44385;BME280;30101;32.778;34.994;2022-08-19T05:18:59;96848.53;;;25.36;67.69
44385;BME280;30101;32.778;34.994;2022-08-19T05:24:06;96851.03;;;25.50;67.69
44385;BME280;30101;32.778;34.994;2022-08-19T05:29:10;96855.25;;;25.77;67.05
44385;BME280;30101;32.778;34.994;2022-08-19T05:34:15;96851.03;;;25.88;67.02
44385;BME280;30101;32.778;34.994;2022-08-19T05:39:23;96857.50;;;25.84;67.17
44385;BME280;30101;32.778;34.994;2022-08-19T05:44:29;96851.25;;;26.67;65.32
44385;BME280;30101;32.778;34.994;2022-08-19T05:49:35;96851.81;;;26.93;64.94
44385;BME280;30101;32.778;34.994;2022-08-19T05:54:40;96850.09;;;29.63;58.75
44385;BME280;30101;32.778;34.994;2022-08-19T05:59:45;96856.53;;;31.84;54.37
44385;BME280;30101;32.778;34.994;2022-08-19T06:04:49;96859.41;;;31.91;54.23
44385;BME280;30101;32.778;34.994;2022-08-19T06:09:52;96853.47;;;33.46;51.22
44385;BME280;30101;32.778;34.994;2022-08-19T06:15:07;96855.56;;;32.86;52.69
44385;BME280;30101;32.778;34.994;2022-08-19T06:20:14;96853.84;;;32.74;53.17
44385;BME280;30101;32.778;34.994;2022-08-19T06:25:18;96866.72;;;31.80;54.76
44385;BME280;30101;32.778;34.994;2022-08-19T06:30:22;96870.03;;;30.62;56.64
44385;BME280;30101;32.778;34.994;2022-08-19T06:35:25;96864.09;;;29.42;58.34
44385;BME280;30101;32.778;34.994;2022-08-19T06:40:29;96866.47;;;30.07;57.14
44385;BME280;30101;32.778;34.994;2022-08-19T06:45:32;96871.03;;;31.12;55.30
44385;BME280;30101;32.778;34.994;2022-08-19T06:50:36;96875.72;;;30.88;55.31
44385;BME280;30101;32.778;34.994;2022-08-19T06:55:42;96876.69;;;30.06;56.41
44385;BME280;30101;32.778;34.994;2022-08-19T07:00:45;96876.31;;;29.29;58.06
44385;BME280;30101;32.778;34.994;2022-08-19T07:05:49;96878.16;;;29.09;58.67
44385;BME280;30101;32.778;34.994;2022-08-19T07:10:53;96882.34;;;28.91;58.33
44385;BME280;30101;32.778;34.994;2022-08-19T07:15:57;96890.06;;;28.85;58.47
44385;BME280;30101;32.778;34.994;2022-08-19T07:21:28;96877.16;;;29.01;58.43
44385;BME280;30101;32.778;34.994;2022-08-19T07:26:35;96886.75;;;28.92;58.14
44385;BME280;30101;32.778;34.994;2022-08-19T07:31:40;96886.84;;;28.83;58.13
44385;BME280;30101;32.778;34.994;2022-08-19T07:36:45;96882.84;;;28.93;58.40
44385;BME280;30101;32.778;34.994;2022-08-19T07:41:49;96884.44;;;29.10;58.07
44385;BME280;30101;32.778;34.994;2022-08-19T07:46:56;96881.91;;;29.17;57.60
44385;BME280;30101;32.778;34.994;2022-08-19T07:52:07;96883.38;;;29.42;58.12
44385;BME280;30101;32.778;34.994;2022-08-19T07:57:11;96882.66;;;29.93;57.66
44385;BME280;30101;32.778;34.994;2022-08-19T08:02:14;96883.56;;;30.32;56.76
44385;BME280;30101;32.778;34.994;2022-08-19T08:07:18;96880.88;;;30.71;55.99
44385;BME280;30101;32.778;34.994;2022-08-19T08:12:35;96878.38;;;31.04;55.21
44385;BME280;30101;32.778;34.994;2022-08-19T08:17:41;96883.47;;;31.02;54.52
44385;BME280;30101;32.778;34.994;2022-08-19T08:22:53;96878.84;;;30.87;54.87
44385;BME280;30101;32.778;34.994;2022-08-19T08:27:57;96866.03;;;30.98;54.37
44385;BME280;30101;32.778;34.994;2022-08-19T08:33:00;96873.56;;;31.21;54.71
44385;BME280;30101;32.778;34.994;2022-08-19T08:38:05;96866.13;;;31.44;54.07
44385;BME280;30101;32.778;34.994;2022-08-19T08:43:37;96870.19;;;31.50;53.99
44385;BME280;30101;32.778;34.994;2022-08-19T08:48:46;96866.81;;;31.37;53.88
44385;BME280;30101;32.778;34.994;2022-08-19T08:53:55;96860.16;;;31.19;53.99
44385;BME280;30101;32.778;34.994;2022-08-19T08:59:03;96851.13;;;30.99;54.16
44385;BME280;30101;32.778;34.994;2022-08-19T09:04:07;96857.47;;;31.03;53.78
44385;BME280;30101;32.778;34.994;2022-08-19T09:09:32;96855.91;;;30.83;54.51
44385;BME280;30101;32.778;34.994;2022-08-19T09:15:06;96854.66;;;30.61;54.81
44385;BME280;30101;32.778;34.994;2022-08-19T09:25:18;96864.97;;;29.94;55.08
44385;BME280;30101;32.778;34.994;2022-08-19T09:30:36;96858.25;;;29.75;56.07
44385;BME280;30101;32.778;34.994;2022-08-19T09:35:41;96869.00;;;29.65;56.39
44385;BME280;30101;32.778;34.994;2022-08-19T09:40:55;96866.63;;;29.63;56.46
44385;BME280;30101;32.778;34.994;2022-08-19T09:46:01;96875.47;;;29.72;56.53
44385;BME280;30101;32.778;34.994;2022-08-19T09:51:07;96865.53;;;29.83;56.04
44385;BME280;30101;32.778;34.994;2022-08-19T09:56:19;96868.91;;;29.93;56.21
44385;BME280;30101;32.778;34.994;2022-08-19T10:01:28;96867.16;;;30.04;56.23
44385;BME280;30101;32.778;34.994;2022-08-19T10:06:32;96865.75;;;30.10;56.17
44385;BME280;30101;32.778;34.994;2022-08-19T10:11:48;96855.63;;;30.14;55.64
44385;BME280;30101;32.778;34.994;2022-08-19T10:16:57;96861.06;;;30.11;55.68
44385;BME280;30101;32.778;34.994;2022-08-19T10:22:05;96857.41;;;30.06;56.00
44385;BME280;30101;32.778;34.994;2022-08-19T10:27:14;96859.13;;;29.95;56.29
44385;BME280;30101;32.778;34.994;2022-08-19T10:32:18;96852.19;;;29.86;56.13
44385;BME280;30101;32.778;34.994;2022-08-19T10:37:36;96854.78;;;29.78;56.79
44385;BME280;30101;32.778;34.994;2022-08-19T10:43:01;96848.38;;;29.90;56.79
44385;BME280;30101;32.778;34.994;2022-08-19T10:48:04;96855.47;;;29.91;56.20
44385;BME280;30101;32.778;34.994;2022-08-19T10:53:08;96837.31;;;29.87;56.07
44385;BME280;30101;32.778;34.994;2022-08-19T10:58:17;96848.00;;;29.92;56.03
44385;BME280;30101;32.778;34.994;2022-08-19T11:03:21;96844.56;;;29.95;56.42
44385;BME280;30101;32.778;34.994;2022-08-19T11:08:25;96855.88;;;30.09;55.63
44385;BME280;30101;32.778;34.994;2022-08-19T11:13:31;96845.63;;;29.90;55.76
44385;BME280;30101;32.778;34.994;2022-08-19T11:18:37;96849.75;;;29.80;55.79
44385;BME280;30101;32.778;34.994;2022-08-19T11:23:41;96849.44;;;29.86;55.37
44385;BME280;30101;32.778;34.994;2022-08-19T11:28:45;96847.25;;;29.75;55.79
44385;BME280;30101;32.778;34.994;2022-08-19T11:33:48;96840.06;;;29.71;56.03
44385;BME280;30101;32.778;34.994;2022-08-19T11:38:52;96842.91;;;29.59;56.45
44385;BME280;30101;32.778;34.994;2022-08-19T11:43:56;96840.44;;;29.69;56.21
44385;BME280;30101;32.778;34.994;2022-08-19T11:49:03;96839.53;;;29.65;56.88
44385;BME280;30101;32.778;34.994;2022-08-19T11:54:07;96834.50;;;29.67;56.85
44385;BME280;30101;32.778;34.994;2022-08-19T11:59:11;96833.22;;;29.65;56.34
44385;BME280;30101;32.778;34.994;2022-08-19T12:04:17;96835.19;;;29.48;56.80
44385;BME280;30101;32.778;34.994;2022-08-19T12:09:23;96833.41;;;29.40;57.39
44385;BME280;30101;32.778;34.994;2022-08-19T12:14:32;96829.06;;;29.39;57.54
44385;BME280;30101;32.778;34.994;2022-08-19T12:19:37;96827.63;;;29.45;57.10
44385;BME280;30101;32.778;34.994;2022-08-19T12:24:40;96818.84;;;29.40;57.55
44385;BME280;30101;32.778;34.994;2022-08-19T12:29:44;96823.91;;;29.38;57.39
44385;BME280;30101;32.778;34.994;2022-08-19T12:34:49;96824.91;;;29.29;57.53
44385;BME280;30101;32.778;34.994;2022-08-19T12:39:52;96818.06;;;29.23;58.07
44385;BME280;30101;32.778;34.994;2022-08-19T12:44:56;96816.19;;;29.12;58.37
44385;BME280;30101;32.778;34.994;2022-08-19T12:50:00;96809.91;;;29.11;58.35
44385;BME280;30101;32.778;34.994;2022-08-19T12:55:09;96812.03;;;29.18;58.24
44385;BME280;30101;32.778;34.994;2022-08-19T13:00:16;96817.72;;;29.25;57.88
44385;BME280;30101;32.778;34.994;2022-08-19T13:05:25;96805.91;;;29.09;58.54
44385;BME280;30101;32.778;34.994;2022-08-19T13:10:32;96812.25;;;28.97;58.94
44385;BME280;30101;32.778;34.994;2022-08-19T13:15:39;96808.56;;;28.77;59.27
44385;BME280;30101;32.778;34.994;2022-08-19T13:20:43;96812.09;;;28.77;59.45
44385;BME280;30101;32.778;34.994;2022-08-19T13:25:59;96804.34;;;28.80;59.39
44385;BME280;30101;32.778;34.994;2022-08-19T13:31:03;96813.69;;;28.79;59.47
44385;BME280;30101;32.778;34.994;2022-08-19T13:36:07;96810.50;;;28.76;59.31
44385;BME280;30101;32.778;34.994;2022-08-19T13:41:12;96816.19;;;28.84;59.17
44385;BME280;30101;32.778;34.994;2022-08-19T13:46:17;96812.53;;;28.92;59.16
44385;BME280;30101;32.778;34.994;2022-08-19T13:51:20;96812.25;;;28.97;59.28
44385;BME280;30101;32.778;34.994;2022-08-19T13:56:25;96813.34;;;28.92;58.87
44385;BME280;30101;32.778;34.994;2022-08-19T14:01:28;96809.47;;;28.81;59.46
44385;BME280;30101;32.778;34.994;2022-08-19T14:06:32;96803.06;;;28.77;59.17
44385;BME280;30101;32.778;34.994;2022-08-19T14:11:36;96807.69;;;28.73;59.29
44385;BME280;30101;32.778;34.994;2022-08-19T14:16:39;96807.78;;;28.76;59.56
44385;BME280;30101;32.778;34.994;2022-08-19T14:21:43;96803.69;;;28.70;59.41
44385;BME280;30101;32.778;34.994;2022-08-19T14:26:47;96814.91;;;28.65;59.50
44385;BME280;30101;32.778;34.994;2022-08-19T14:31:51;96807.88;;;28.52;59.74
44385;BME280;30101;32.778;34.994;2022-08-19T14:36:54;96802.34;;;28.36;60.02
44385;BME280;30101;32.778;34.994;2022-08-19T14:41:58;96804.88;;;28.29;59.90
44385;BME280;30101;32.778;34.994;2022-08-19T14:47:02;96797.00;;;28.15;60.21
44385;BME280;30101;32.778;34.994;2022-08-19T14:52:06;96792.81;;;28.06;60.36
44385;BME280;30101;32.778;34.994;2022-08-19T14:57:14;96801.97;;;28.10;60.28
44385;BME280;30101;32.778;34.994;2022-08-19T15:02:18;96795.19;;;28.07;60.41
44385;BME280;30101;32.778;34.994;2022-08-19T15:07:37;96797.53;;;27.93;60.32
44385;BME280;30101;32.778;34.994;2022-08-19T15:12:41;96813.09;;;27.77;60.74
44385;BME280;30101;32.778;34.994;2022-08-19T15:17:44;96801.09;;;27.69;61.07
44385;BME280;30101;32.778;34.994;2022-08-19T15:22:49;96804.63;;;27.57;61.19
44385;BME280;30101;32.778;34.994;2022-08-19T15:27:52;96796.53;;;27.36;61.33
44385;BME280;30101;32.778;34.994;2022-08-19T15:32:57;96799.69;;;27.26;61.77
44385;BME280;30101;32.778;34.994;2022-08-19T15:38:01;96811.69;;;27.22;61.72
44385;BME280;30101;32.778;34.994;2022-08-19T15:43:05;96809.75;;;27.10;62.09
44385;BME280;30101;32.778;34.994;2022-08-19T15:48:09;96808.56;;;26.99;62.24
44385;BME280;30101;32.778;34.994;2022-08-19T15:53:13;96807.03;;;26.89;62.34
44385;BME280;30101;32.778;34.994;2022-08-19T15:58:16;96813.75;;;26.79;62.50
44385;BME280;30101;32.778;34.994;2022-08-19T16:03:31;96813.16;;;26.74;62.44
44385;BME280;30101;32.778;34.994;2022-08-19T16:08:42;96817.25;;;26.68;62.71
44385;BME280;30101;32.778;34.994;2022-08-19T16:13:52;96817.34;;;26.59;62.69
44385;BME280;30101;32.778;34.994;2022-08-19T16:18:58;96816.63;;;26.50;63.05
44385;BME280;30101;32.778;34.994;2022-08-19T16:24:04;96817.84;;;26.40;63.21
44385;BME280;30101;32.778;34.994;2022-08-19T16:29:09;96817.75;;;26.28;62.96
44385;BME280;30101;32.778;34.994;2022-08-19T16:34:15;96819.09;;;26.22;63.50
44385;BME280;30101;32.778;34.994;2022-08-19T16:39:19;96822.16;;;26.20;63.53
44385;BME280;30101;32.778;34.994;2022-08-19T16:44:23;96823.97;;;26.16;63.85
44385;BME280;30101;32.778;34.994;2022-08-19T16:49:27;96823.69;;;26.09;64.25
44385;BME280;30101;32.778;34.994;2022-08-19T16:54:51;96832.09;;;26.04;64.33
44385;BME280;30101;32.778;34.994;2022-08-19T16:59:55;96827.97;;;25.98;64.11
44385;BME280;30101;32.778;34.994;2022-08-19T17:04:58;96823.94;;;25.95;64.35
44385;BME280;30101;32.778;34.994;2022-08-19T17:10:03;96827.00;;;25.94;64.61
44385;BME280;30101;32.778;34.994;2022-08-19T17:15:07;96823.81;;;25.92;64.96
44385;BME280;30101;32.778;34.994;2022-08-19T17:20:11;96837.34;;;25.88;65.26
44385;BME280;30101;32.778;34.994;2022-08-19T17:25:15;96843.94;;;25.87;65.18
44385;BME280;30101;32.778;34.994;2022-08-19T17:30:20;96835.75;;;25.87;65.24
44385;BME280;30101;32.778;34.994;2022-08-19T17:35:24;96846.56;;;25.84;65.50
44385;BME280;30101;32.778;34.994;2022-08-19T17:40:28;96853.81;;;25.79;65.53
44385;BME280;30101;32.778;34.994;2022-08-19T17:45:31;96854.47;;;25.76;65.72
44385;BME280;30101;32.778;34.994;2022-08-19T17:50:35;96855.13;;;25.73;65.82
44385;BME280;30101;32.778;34.994;2022-08-19T17:55:39;96859.31;;;25.71;65.70
44385;BME280;30101;32.778;34.994;2022-08-19T18:00:43;96868.97;;;25.68;66.17
44385;BME280;30101;32.778;34.994;2022-08-19T18:05:56;96868.84;;;25.65;66.27
44385;BME280;30101;32.778;34.994;2022-08-19T18:11:01;96871.22;;;25.66;66.28
44385;BME280;30101;32.778;34.994;2022-08-19T18:16:04;96867.69;;;25.66;66.63
44385;BME280;30101;32.778;34.994;2022-08-19T18:21:08;96877.69;;;25.62;66.84
44385;BME280;30101;32.778;34.994;2022-08-19T18:26:12;96879.16;;;25.59;66.78
44385;BME280;30101;32.778;34.994;2022-08-19T18:31:16;96880.59;;;25.56;66.65
44385;BME280;30101;32.778;34.994;2022-08-19T18:36:19;96881.91;;;25.50;67.11
44385;BME280;30101;32.778;34.994;2022-08-19T18:41:43;96877.44;;;25.46;67.26
44385;BME280;30101;32.778;34.994;2022-08-19T18:46:46;96876.16;;;25.43;67.27
44385;BME280;30101;32.778;34.994;2022-08-19T18:51:50;96880.63;;;25.48;67.43
44385;BME280;30101;32.778;34.994;2022-08-19T18:56:54;96883.19;;;25.53;67.51
44385;BME280;30101;32.778;34.994;2022-08-19T19:01:58;96877.84;;;25.56;67.28
44385;BME280;30101;32.778;34.994;2022-08-19T19:07:07;96881.72;;;25.55;67.14
44385;BME280;30101;32.778;34.994;2022-08-19T19:12:12;96891.69;;;25.51;67.20
44385;BME280;30101;32.778;34.994;2022-08-19T19:17:16;96879.84;;;25.47;67.25
44385;BME280;30101;32.778;34.994;2022-08-19T19:22:21;96885.16;;;25.44;67.51
44385;BME280;30101;32.778;34.994;2022-08-19T19:27:25;96886.44;;;25.38;67.64
44385;BME280;30101;32.778;34.994;2022-08-19T19:32:31;96893.72;;;25.34;67.60
44385;BME280;30101;32.778;34.994;2022-08-19T19:37:40;96876.81;;;25.32;67.59
44385;BME280;30101;32.778;34.994;2022-08-19T19:42:44;96881.38;;;25.27;67.82
44385;BME280;30101;32.778;34.994;2022-08-19T19:47:47;96875.56;;;25.20;67.61
44385;BME280;30101;32.778;34.994;2022-08-19T19:52:52;96878.16;;;25.17;67.72
44385;BME280;30101;32.778;34.994;2022-08-19T19:58:02;96880.44;;;25.15;67.63
44385;BME280;30101;32.778;34.994;2022-08-19T20:03:05;96878.81;;;25.14;67.69
44385;BME280;30101;32.778;34.994;2022-08-19T20:08:09;96878.97;;;25.17;67.82
44385;BME280;30101;32.778;34.994;2022-08-19T20:13:13;96873.97;;;25.19;67.81
44385;BME280;30101;32.778;34.994;2022-08-19T20:18:17;96867.53;;;25.24;67.53
44385;BME280;30101;32.778;34.994;2022-08-19T20:23:22;96860.31;;;25.28;67.49
44385;BME280;30101;32.778;34.994;2022-08-19T20:28:26;96866.56;;;25.28;67.81
44385;BME280;30101;32.778;34.994;2022-08-19T20:33:29;96863.03;;;25.28;68.05
44385;BME280;30101;32.778;34.994;2022-08-19T20:38:33;96865.59;;;25.24;67.76
44385;BME280;30101;32.778;34.994;2022-08-19T20:43:37;96869.31;;;25.20;68.09
44385;BME280;30101;32.778;34.994;2022-08-19T20:48:41;96860.03;;;25.12;68.11
44385;BME280;30101;32.778;34.994;2022-08-19T20:53:45;96857.16;;;25.09;68.23
44385;BME280;30101;32.778;34.994;2022-08-19T20:58:48;96846.88;;;25.06;68.08
44385;BME280;30101;32.778;34.994;2022-08-19T21:03:58;96863.09;;;25.02;68.46
44385;BME280;30101;32.778;34.994;2022-08-19T21:09:03;96857.47;;;24.98;68.61
44385;BME280;30101;32.778;34.994;2022-08-19T21:14:08;96866.31;;;24.95;68.57
44385;BME280;30101;32.778;34.994;2022-08-19T21:19:12;96857.97;;;24.92;68.27
44385;BME280;30101;32.778;34.994;2022-08-19T21:24:15;96852.34;;;24.88;68.72
44385;BME280;30101;32.778;34.994;2022-08-19T21:29:19;96852.34;;;24.88;68.65
44385;BME280;30101;32.778;34.994;2022-08-19T21:34:23;96848.66;;;24.84;68.75
44385;BME280;30101;32.778;34.994;2022-08-19T21:39:27;96847.06;;;24.83;68.97
44385;BME280;30101;32.778;34.994;2022-08-19T21:44:32;96849.47;;;24.85;68.96
44385;BME280;30101;32.778;34.994;2022-08-19T21:49:39;96844.16;;;24.80;68.87
44385;BME280;30101;32.778;34.994;2022-08-19T21:54:42;96844.34;;;24.74;68.67
44385;BME280;30101;32.778;34.994;2022-08-19T21:59:46;96844.50;;;24.69;69.11
44385;BME280;30101;32.778;34.994;2022-08-19T22:04:51;96841.13;;;24.64;69.54
44385;BME280;30101;32.778;34.994;2022-08-19T22:09:55;96833.13;;;24.59;69.40
44385;BME280;30101;32.778;34.994;2022-08-19T22:14:58;96829.75;;;24.53;69.48
44385;BME280;30101;32.778;34.994;2022-08-19T22:20:04;96831.03;;;24.56;69.48
44385;BME280;30101;32.778;34.994;2022-08-19T22:25:13;96824.16;;;24.58;69.75
44385;BME280;30101;32.778;34.994;2022-08-19T22:30:35;96831.03;;;24.56;69.48
44385;BME280;30101;32.778;34.994;2022-08-19T22:35:42;96816.91;;;24.54;69.77
44385;BME280;30101;32.778;34.994;2022-08-19T22:40:48;96818.06;;;24.53;69.93
44385;BME280;30101;32.778;34.994;2022-08-19T22:45:54;96814.81;;;24.51;69.99
44385;BME280;30101;32.778;34.994;2022-08-19T22:50:58;96809.69;;;24.49;69.86
44385;BME280;30101;32.778;34.994;2022-08-19T22:56:03;96813.88;;;24.46;70.28
44385;BME280;30101;32.778;34.994;2022-08-19T23:01:07;96813.72;;;24.43;70.32
44385;BME280;30101;32.778;34.994;2022-08-19T23:06:12;96827.69;;;24.41;70.03
44385;BME280;30101;32.778;34.994;2022-08-19T23:11:16;96818.22;;;24.39;70.06
44385;BME280;30101;32.778;34.994;2022-08-19T23:16:19;96817.41;;;24.38;70.16
44385;BME280;30101;32.778;34.994;2022-08-19T23:21:23;96820.00;;;24.35;70.22
44385;BME280;30101;32.778;34.994;2022-08-19T23:26:27;96817.56;;;24.33;70.37
44385;BME280;30101;32.778;34.994;2022-08-19T23:31:35;96814.03;;;24.33;70.69
44385;BME280;30101;32.778;34.994;2022-08-19T23:36:40;96810.81;;;24.31;70.21
44385;BME280;30101;32.778;34.994;2022-08-19T23:41:48;96807.13;;;24.27;70.60
44385;BME280;30101;32.778;34.994;2022-08-19T23:46:52;96802.63;;;24.22;70.60
44385;BME280;30101;32.778;34.994;2022-08-19T23:52:00;96804.56;;;24.21;70.82
44385;BME280;30101;32.778;34.994;2022-08-19T23:57:04;96798.31;;;24.21;70.74
